Time;durP1;ratioP1;P1;durP2;ratioP2;P2;SDS_P1;SDS_P2;PMS_P1;PMS_P2;Temp;Humidity;BMP_temperature;BMP_pressure;BME280_temperature;BME280_humidity;BME280_pressure;Samples;Min_cycle;Max_cycle;Signal;HPM_P1;HPM_P2
2022/10/23 00:00:22;;;;;;;12.98;9.25;;;11.40;99.90;;;;;;5009102;28;20034;-57
2022/10/23 00:02:52;;;;;;;11.13;8.25;;;11.50;99.90;;;;;;5029924;28;20061;-56
2022/10/23 00:05:17;;;;;;;10.27;8.27;;;11.50;99.90;;;;;;5008638;28;20482;-53
2022/10/23 00:07:43;;;;;;;14.30;8.90;;;11.60;99.90;;;;;;5029169;28;20039;-55
2022/10/23 00:10:09;;;;;;;13.45;8.82;;;11.70;99.90;;;;;;5010345;28;20068;-53
2022/10/23 00:12:34;;;;;;;11.65;8.52;;;11.70;99.90;;;;;;5007759;28;20030;-57
2022/10/23 00:15:00;;;;;;;12.43;9.05;;;11.80;99.90;;;;;;5028637;28;20034;-52
2022/10/23 00:17:26;;;;;;;12.05;8.23;;;11.70;99.90;;;;;;5008399;28;20133;-56
2022/10/23 00:19:51;;;;;;;13.82;9.73;;;11.70;99.90;;;;;;5028397;28;20026;-54
2022/10/23 00:22:17;;;;;;;14.20;9.00;;;11.70;99.90;;;;;;5008336;28;20025;-56
2022/10/23 00:24:42;;;;;;;16.15;9.05;;;11.60;99.90;;;;;;5021285;28;20531;-58
2022/10/23 00:27:08;;;;;;;13.38;8.32;;;11.60;99.90;;;;;;5008712;28;20022;-54
2022/10/23 00:29:33;;;;;;;10.00;7.95;;;11.50;99.90;;;;;;5028491;28;20041;-54
2022/10/23 00:31:58;;;;;;;10.52;8.40;;;11.50;99.90;;;;;;5005760;28;20030;-56
2022/10/23 00:34:24;;;;;;;10.55;8.27;;;11.40;99.90;;;;;;5006060;28;20038;-56
2022/10/23 00:36:50;;;;;;;15.07;8.48;;;11.40;99.90;;;;;;5017353;28;20082;-56
2022/10/23 00:39:15;;;;;;;14.20;9.43;;;11.40;99.90;;;;;;5026813;28;20045;-55
2022/10/23 00:41:41;;;;;;;12.80;9.30;;;11.30;99.90;;;;;;5018599;28;20090;-56
2022/10/23 00:44:29;;;;;;;10.55;7.95;;;11.30;99.90;;;;;;5026598;28;20038;-55
2022/10/23 00:46:55;;;;;;;10.55;7.32;;;11.20;99.90;;;;;;5010652;28;20049;-56
2022/10/23 00:49:21;;;;;;;9.30;6.78;;;11.10;99.90;;;;;;5007351;28;20041;-55
2022/10/23 00:51:51;;;;;;;14.05;8.02;;;11.10;99.90;;;;;;5010781;28;20040;-55
2022/10/23 00:54:21;;;;;;;15.73;7.53;;;11.00;99.90;;;;;;5025213;28;20091;-57
2022/10/23 00:56:47;;;;;;;10.00;7.05;;;11.00;99.90;;;;;;5007703;28;20029;-56
2022/10/23 00:59:13;;;;;;;11.43;7.72;;;10.90;99.90;;;;;;5007376;28;20045;-57
2022/10/23 01:01:39;;;;;;;11.93;8.00;;;10.90;99.90;;;;;;5023899;28;20065;-56
2022/10/23 01:04:06;;;;;;;10.52;6.72;;;10.80;99.90;;;;;;5007715;28;20069;-54
2022/10/23 01:06:49;;;;;;;11.45;8.18;;;10.80;99.90;;;;;;5022708;28;20048;-54
2022/10/23 01:09:27;;;;;;;12.68;6.78;;;10.80;99.90;;;;;;4988033;28;20698;-52
2022/10/23 01:12:14;;;;;;;10.10;6.70;;;10.80;99.90;;;;;;5008823;28;20457;-56
2022/10/23 01:14:54;;;;;;;13.77;6.13;;;10.80;99.90;;;;;;4987253;28;20048;-56
2022/10/23 01:17:36;;;;;;;10.30;6.78;;;10.80;99.90;;;;;;5000708;28;20088;-56
2022/10/23 01:20:38;;;;;;;9.48;5.65;;;10.80;99.90;;;;;;4986451;28;20027;-55
2022/10/23 01:23:25;;;;;;;10.27;5.65;;;10.80;99.90;;;;;;4994420;28;20117;-54
2022/10/23 01:26:17;;;;;;;10.43;6.18;;;10.80;99.90;;;;;;5022390;28;20076;-57
2022/10/23 01:29:03;;;;;;;10.43;6.80;;;10.80;99.90;;;;;;5025729;28;20492;-56
2022/10/23 01:31:40;;;;;;;;;;;10.80;99.90;;;;;;5000305;28;20043;-57
2022/10/23 01:34:12;;;;;;;10.13;5.30;;;10.90;99.90;;;;;;5003236;28;20361;-54
2022/10/23 01:36:41;;;;;;;7.80;5.78;;;10.90;99.90;;;;;;5023795;28;20059;-55
2022/10/23 01:39:13;;;;;;;8.98;6.47;;;11.00;99.90;;;;;;5006160;28;20033;-54
2022/10/23 01:41:48;;;;;;;9.20;6.45;;;10.90;99.90;;;;;;5003469;28;20099;-55
2022/10/23 01:44:40;;;;;;;10.02;6.63;;;11.00;99.90;;;;;;5018276;28;20160;-55
2022/10/23 01:47:08;;;;;;;11.02;6.30;;;11.00;99.90;;;;;;5013080;28;20079;-56
2022/10/23 01:49:38;;;;;;;11.05;7.03;;;11.00;99.90;;;;;;5009659;28;20034;-54
2022/10/23 01:52:07;;;;;;;9.65;6.28;;;11.00;99.90;;;;;;5013357;28;20064;-52
2022/10/23 01:54:38;;;;;;;11.77;6.68;;;11.00;99.90;;;;;;5029268;28;20131;-53
2022/10/23 01:57:07;;;;;;;9.45;6.25;;;11.00;99.90;;;;;;5015208;28;20042;-55
2022/10/23 01:59:37;;;;;;;11.18;6.50;;;10.90;99.90;;;;;;5024131;28;20541;-55
2022/10/23 02:02:04;;;;;;;9.77;6.25;;;10.90;99.90;;;;;;4998747;28;20054;-55
2022/10/23 02:04:34;;;;;;;12.05;6.72;;;10.90;99.90;;;;;;5028502;28;20037;-56
2022/10/23 02:07:00;;;;;;;9.65;6.40;;;10.80;99.90;;;;;;5022084;28;20033;-53
2022/10/23 02:09:26;;;;;;;8.10;5.95;;;10.80;99.90;;;;;;5028830;28;20402;-56
2022/10/23 02:12:01;;;;;;;11.45;6.63;;;10.70;99.90;;;;;;5017852;28;20025;-57
2022/10/23 02:14:57;;;;;;;9.15;5.68;;;10.70;99.90;;;;;;5027253;28;20029;-55
2022/10/23 02:17:56;;;;;;;11.02;5.90;;;10.70;99.90;;;;;;5007444;28;20032;-57
2022/10/23 02:20:32;;;;;;;11.38;6.43;;;10.60;99.90;;;;;;5000943;28;20087;-56
2022/10/23 02:23:12;;;;;;;14.18;6.72;;;10.60;99.90;;;;;;5007716;28;20480;-56
2022/10/23 02:25:52;;;;;;;10.35;5.95;;;10.60;99.90;;;;;;5028908;28;20025;-56
2022/10/23 02:28:27;;;;;;;9.82;6.10;;;10.60;99.90;;;;;;4989632;28;20588;-55
2022/10/23 02:30:56;;;;;;;10.50;6.77;;;10.60;99.90;;;;;;4990475;28;20030;-57
2022/10/23 02:33:23;;;;;;;12.75;6.68;;;10.50;99.90;;;;;;5028498;28;20547;-55
2022/10/23 02:35:49;;;;;;;12.20;6.55;;;10.50;99.90;;;;;;5007668;28;20022;-56
2022/10/23 02:38:34;;;;;;;9.75;6.65;;;10.40;99.90;;;;;;5028574;28;20065;-55
2022/10/23 02:41:12;;;;;;;7.27;6.03;;;10.40;99.90;;;;;;5009129;28;20041;-57
2022/10/23 02:44:01;;;;;;;11.18;6.10;;;10.40;99.90;;;;;;5028381;28;20079;-55
2022/10/23 02:46:59;;;;;;;13.05;6.45;;;10.40;99.90;;;;;;4998144;28;20457;-55
2022/10/23 02:49:42;;;;;;;12.45;7.32;;;10.40;99.90;;;;;;5011103;28;20068;-55
2022/10/23 02:52:13;;;;;;;13.77;6.82;;;10.40;99.90;;;;;;5007392;28;20033;-57
2022/10/23 02:54:55;;;;;;;10.48;7.13;;;10.40;99.90;;;;;;4989270;28;20034;-54
2022/10/23 02:57:55;;;;;;;13.05;7.28;;;10.40;99.90;;;;;;5023946;28;20030;-50
2022/10/23 03:00:22;;;;;;;11.57;7.20;;;10.50;99.90;;;;;;4992052;28;20049;-53
2022/10/23 03:02:56;;;;;;;9.77;6.32;;;10.60;99.90;;;;;;5020301;28;20041;-55
2022/10/23 03:05:25;;;;;;;13.63;7.80;;;10.60;99.90;;;;;;4990451;28;20269;-56
2022/10/23 03:07:51;;;;;;;10.52;6.53;;;10.60;99.90;;;;;;5011977;28;20038;-55
2022/10/23 03:10:17;;;;;;;10.95;6.82;;;10.70;99.90;;;;;;5028499;28;20504;-55
2022/10/23 03:12:43;;;;;;;9.90;7.18;;;10.70;99.90;;;;;;5009054;28;20666;-55
2022/10/23 03:15:10;;;;;;;10.32;6.53;;;10.70;99.90;;;;;;5029810;28;20030;-56
2022/10/23 03:17:36;;;;;;;10.50;6.78;;;10.70;99.90;;;;;;5008630;28;20025;-56
2022/10/23 03:20:02;;;;;;;10.10;6.70;;;10.70;99.90;;;;;;5029731;28;20037;-55
2022/10/23 03:22:27;;;;;;;10.98;7.32;;;10.60;99.90;;;;;;5009189;28;20034;-52
2022/10/23 03:24:53;;;;;;;9.10;6.20;;;10.70;99.90;;;;;;5027189;28;20083;-54
2022/10/23 03:27:18;;;;;;;13.82;6.68;;;10.70;99.90;;;;;;5009094;28;20026;-54
2022/10/23 03:29:44;;;;;;;13.25;6.63;;;10.70;99.90;;;;;;5029178;28;20507;-57
2022/10/23 03:32:09;;;;;;;15.80;6.95;;;10.70;99.90;;;;;;5019189;28;20030;-56
2022/10/23 03:34:35;;;;;;;10.27;6.05;;;10.60;99.90;;;;;;5010676;28;20034;-57
2022/10/23 03:37:01;;;;;;;8.63;6.78;;;10.60;99.90;;;;;;5027315;28;20064;-57
2022/10/23 03:39:26;;;;;;;13.77;7.80;;;10.60;99.90;;;;;;5010963;28;20466;-56
2022/10/23 03:41:52;;;;;;;13.25;6.25;;;10.50;99.90;;;;;;5027496;28;20034;-54
2022/10/23 03:44:17;;;;;;;11.88;6.93;;;10.50;99.90;;;;;;5029708;28;20026;-54
2022/10/23 03:46:43;;;;;;;10.48;6.07;;;10.40;99.90;;;;;;5014838;28;20063;-56
2022/10/23 03:49:08;;;;;;;7.93;6.05;;;10.40;99.90;;;;;;5030238;28;20025;-57
2022/10/23 03:51:34;;;;;;;9.88;6.00;;;10.30;99.90;;;;;;5027191;28;20106;-55
2022/10/23 03:53:59;;;;;;;10.48;5.97;;;10.30;99.90;;;;;;5030051;28;20026;-57
2022/10/23 03:56:25;;;;;;;10.95;6.05;;;10.20;99.90;;;;;;5012243;28;20026;-55
2022/10/23 03:58:51;;;;;;;9.75;6.10;;;10.10;99.90;;;;;;5029971;28;20021;-55
2022/10/23 04:01:16;;;;;;;12.82;6.88;;;10.10;99.90;;;;;;5010732;28;20058;-52
2022/10/23 04:03:42;;;;;;;13.27;6.45;;;10.00;99.90;;;;;;5029730;28;20478;-56
2022/10/23 04:06:07;;;;;;;27.08;7.25;;;10.00;99.90;;;;;;5009263;28;20041;-53
2022/10/23 04:08:33;;;;;;;11.82;5.55;;;10.00;99.90;;;;;;5027479;28;20113;-54
2022/10/23 04:10:58;;;;;;;7.63;6.22;;;10.00;99.90;;;;;;5010420;28;20406;-55
2022/10/23 04:13:24;;;;;;;9.23;6.28;;;10.00;99.90;;;;;;5027317;28;20571;-56
2022/10/23 04:15:51;;;;;;;9.65;6.18;;;10.00;99.90;;;;;;5010251;28;20039;-56
2022/10/23 04:18:17;;;;;;;11.52;6.20;;;10.00;99.90;;;;;;5009089;28;20026;-53
2022/10/23 04:20:43;;;;;;;8.02;5.50;;;9.90;99.90;;;;;;5027544;28;20079;-56
2022/10/23 04:23:09;;;;;;;10.55;5.43;;;9.90;99.90;;;;;;5008133;28;20056;-56
2022/10/23 04:25:34;;;;;;;11.05;6.05;;;9.90;99.90;;;;;;5029349;28;20079;-56
2022/10/23 04:28:00;;;;;;;17.52;6.60;;;9.80;99.90;;;;;;5008390;28;20025;-57
2022/10/23 04:30:25;;;;;;;13.98;6.55;;;9.80;99.90;;;;;;5028705;28;20778;-57
2022/10/23 04:32:51;;;;;;;10.85;6.50;;;9.80;99.90;;;;;;5008438;28;20059;-57
2022/10/23 04:35:17;;;;;;;8.80;5.55;;;9.70;99.90;;;;;;5028592;28;20078;-56
2022/10/23 04:37:44;;;;;;;7.55;5.60;;;9.70;99.90;;;;;;5007901;28;20137;-57
2022/10/23 04:40:10;;;;;;;8.30;5.43;;;9.60;99.90;;;;;;5028766;28;20036;-57
2022/10/23 04:42:36;;;;;;;10.25;5.97;;;9.60;99.90;;;;;;5008136;28;20119;-57
2022/10/23 04:45:01;;;;;;;8.82;5.80;;;9.50;99.90;;;;;;5028329;28;20078;-56
2022/10/23 04:47:26;;;;;;;10.43;5.55;;;9.50;99.90;;;;;;5018425;28;20120;-57
2022/10/23 04:49:52;;;;;;;8.45;6.07;;;9.50;99.90;;;;;;5009976;28;20026;-56
2022/10/23 04:52:17;;;;;;;8.13;5.88;;;9.40;99.90;;;;;;5026318;28;20041;-56
2022/10/23 04:54:43;;;;;;;11.93;6.25;;;9.40;99.90;;;;;;5009692;28;20456;-54
2022/10/23 04:57:08;;;;;;;8.80;5.90;;;9.30;99.90;;;;;;5026492;28;20092;-57
2022/10/23 04:59:34;;;;;;;11.60;6.72;;;9.30;99.90;;;;;;5009795;28;20516;-57
2022/10/23 05:02:00;;;;;;;7.80;5.95;;;9.20;99.90;;;;;;5016993;28;20478;-57
2022/10/23 05:04:25;;;;;;;8.70;6.15;;;9.20;99.90;;;;;;5013102;28;20392;-58
2022/10/23 05:06:51;;;;;;;14.18;6.55;;;9.10;99.90;;;;;;5020205;28;20026;-57
2022/10/23 05:09:16;;;;;;;11.60;6.80;;;9.10;99.90;;;;;;5010909;28;20025;-56
2022/10/23 05:11:42;;;;;;;10.50;5.72;;;9.10;99.90;;;;;;5018112;28;20496;-56
2022/10/23 05:14:07;;;;;;;12.68;6.07;;;9.00;99.90;;;;;;5009017;28;20072;-56
2022/10/23 05:16:47;;;;;;;8.60;5.82;;;8.90;99.90;;;;;;5021414;28;20117;-57
2022/10/23 05:19:18;;;;;;;9.38;5.32;;;8.90;99.90;;;;;;5008013;28;20025;-57
2022/10/23 05:21:44;;;;;;;8.45;5.80;;;8.80;99.90;;;;;;5019074;28;20025;-58
2022/10/23 05:24:10;;;;;;;8.48;5.70;;;8.80;99.90;;;;;;5004978;28;20256;-59
2022/10/23 05:26:36;;;;;;;9.07;5.85;;;8.70;99.90;;;;;;5025468;28;20040;-58
2022/10/23 05:29:01;;;;;;;8.32;5.35;;;8.70;99.90;;;;;;5030319;28;20006;-57
2022/10/23 05:31:27;;;;;;;9.52;5.80;;;8.60;99.90;;;;;;5015719;28;20026;-56
2022/10/23 05:33:54;;;;;;;12.90;5.85;;;8.60;99.90;;;;;;5015081;28;20030;-58
2022/10/23 05:36:22;;;;;;;12.57;6.28;;;8.60;99.90;;;;;;5026011;28;20046;-58
2022/10/23 05:38:47;;;;;;;9.05;5.57;;;8.60;99.90;;;;;;5004638;28;20033;-58
2022/10/23 05:41:13;;;;;;;9.48;5.88;;;8.50;99.90;;;;;;5029898;28;20379;-58
2022/10/23 05:43:39;;;;;;;10.57;5.95;;;8.50;99.90;;;;;;5017212;28;20041;-56
2022/10/23 05:46:05;;;;;;;12.38;5.90;;;8.50;99.90;;;;;;5029724;28;20032;-58
2022/10/23 05:48:31;;;;;;;11.32;6.50;;;8.50;99.90;;;;;;4998686;28;20030;-58
2022/10/23 05:51:03;;;;;;;15.57;5.72;;;8.40;99.90;;;;;;5029779;28;20041;-57
2022/10/23 05:53:28;;;;;;;9.55;5.85;;;8.40;99.90;;;;;;5013573;28;20041;-57
2022/10/23 05:55:54;;;;;;;12.85;5.95;;;8.40;99.90;;;;;;5027452;28;20033;-58
2022/10/23 05:58:19;;;;;;;14.38;6.70;;;8.40;99.90;;;;;;5011504;28;20450;-57
2022/10/23 06:00:44;;;;;;;9.82;6.32;;;8.40;99.90;;;;;;5028835;28;20034;-57
2022/10/23 06:03:10;;;;;;;13.13;5.78;;;8.40;99.90;;;;;;5017425;28;20037;-56
2022/10/23 06:05:35;;;;;;;8.95;6.05;;;8.40;99.90;;;;;;5024250;28;20476;-58
2022/10/23 06:08:01;;;;;;;9.07;5.47;;;8.40;99.90;;;;;;5017765;28;20041;-57
2022/10/23 06:10:27;;;;;;;9.23;5.93;;;8.50;99.90;;;;;;5028386;28;20038;-57
2022/10/23 06:12:52;;;;;;;9.00;6.25;;;8.50;99.90;;;;;;5015356;28;20057;-57
2022/10/23 06:15:18;;;;;;;9.93;5.93;;;8.60;99.90;;;;;;5024031;28;20120;-59
2022/10/23 06:17:43;;;;;;;9.95;6.10;;;8.60;99.90;;;;;;5023562;28;20034;-57
2022/10/23 06:20:09;;;;;;;11.52;5.97;;;8.60;99.90;;;;;;5029824;28;20033;-58
2022/10/23 06:22:34;;;;;;;8.27;5.70;;;8.60;99.90;;;;;;5018952;28;20042;-59
2022/10/23 06:25:00;;;;;;;10.85;6.15;;;8.60;99.90;;;;;;5004461;28;20034;-59
2022/10/23 06:27:25;;;;;;;12.63;6.15;;;8.70;99.90;;;;;;5006717;28;20030;-58
2022/10/23 06:29:51;;;;;;;10.45;5.40;;;8.70;99.90;;;;;;5028752;28;20168;-59
2022/10/23 06:32:17;;;;;;;8.82;5.97;;;8.80;99.90;;;;;;5007718;28;20040;-56
2022/10/23 06:34:42;;;;;;;6.78;5.53;;;8.90;99.90;;;;;;5010682;28;20484;-59
2022/10/23 06:37:08;;;;;;;12.93;6.30;;;8.90;99.90;;;;;;5012766;28;20065;-59
2022/10/23 06:39:35;;;;;;;6.75;5.45;;;8.90;99.90;;;;;;5029384;28;20079;-58
2022/10/23 06:42:01;;;;;;;8.35;5.65;;;9.00;99.90;;;;;;4993545;28;20079;-57
2022/10/23 06:44:26;;;;;;;10.15;5.70;;;9.10;99.90;;;;;;5009531;28;20033;-57
2022/10/23 06:46:52;;;;;;;9.13;5.15;;;9.20;99.90;;;;;;5010925;28;20153;-57
2022/10/23 06:49:17;;;;;;;6.70;4.78;;;9.30;99.90;;;;;;5029995;28;20030;-58
2022/10/23 06:51:43;;;;;;;7.70;6.30;;;9.40;99.90;;;;;;5009454;28;20056;-58
2022/10/23 06:54:10;;;;;;;10.25;6.45;;;9.50;99.90;;;;;;5017846;28;20030;-57
2022/10/23 06:56:36;;;;;;;11.32;6.72;;;9.70;99.90;;;;;;5017023;28;20022;-58
2022/10/23 06:59:01;;;;;;;13.57;7.78;;;9.90;99.90;;;;;;5029894;28;20029;-57
2022/10/23 07:01:27;;;;;;;13.30;6.45;;;10.00;99.90;;;;;;5010476;28;20022;-58
2022/10/23 07:03:52;;;;;;;11.07;6.20;;;10.20;99.90;;;;;;5008507;28;20464;-57
2022/10/23 07:06:18;;;;;;;10.35;6.57;;;10.40;99.90;;;;;;5029096;28;20527;-58
2022/10/23 07:08:43;;;;;;;8.23;6.00;;;10.60;99.90;;;;;;5006646;28;20045;-56
2022/10/23 07:11:10;;;;;;;13.45;6.63;;;10.70;99.90;;;;;;5015283;28;20040;-55
2022/10/23 07:13:37;;;;;;;12.35;5.57;;;10.90;99.90;;;;;;5007473;28;20038;-57
2022/10/23 07:16:20;;;;;;;12.13;4.65;;;11.00;99.90;;;;;;5028899;28;20037;-53
2022/10/23 07:18:47;;;;;;;11.43;4.97;;;11.10;99.90;;;;;;5005610;28;20048;-58
2022/10/23 07:21:13;;;;;;;5.35;4.18;;;11.10;99.90;;;;;;5029100;28;20104;-56
2022/10/23 07:23:38;;;;;;;10.15;5.80;;;11.20;99.90;;;;;;5012454;28;20120;-56
2022/10/23 07:26:10;;;;;;;9.88;6.18;;;11.30;99.90;;;;;;5009826;28;20069;-52
2022/10/23 07:28:36;;;;;;;7.30;5.50;;;11.40;99.90;;;;;;5003370;28;20030;-55
2022/10/23 07:31:02;;;;;;;8.23;5.28;;;11.50;99.90;;;;;;5028738;28;20034;-56
2022/10/23 07:33:27;;;;;;;8.02;4.90;;;11.60;99.90;;;;;;5008277;28;20498;-55
2022/10/23 07:35:53;;;;;;;8.77;5.60;;;11.80;99.90;;;;;;5008317;28;20046;-50
2022/10/23 07:38:18;;;;;;;9.10;5.35;;;11.90;99.90;;;;;;5007297;28;20384;-53
2022/10/23 07:40:44;;;;;;;6.38;4.90;;;12.10;99.90;;;;;;5028306;28;20624;-58
2022/10/23 07:43:10;;;;;;;11.30;5.30;;;12.40;99.90;;;;;;5008229;28;20083;-57
2022/10/23 07:45:35;;;;;;;5.75;4.35;;;12.60;99.90;;;;;;5027686;28;20040;-52
2022/10/23 07:48:01;;;;;;;6.85;4.53;;;12.80;99.90;;;;;;5016376;28;20022;-48
2022/10/23 07:50:26;;;;;;;6.00;4.30;;;13.00;99.90;;;;;;4992170;28;20072;-54
2022/10/23 07:52:52;;;;;;;4.63;4.07;;;13.20;99.90;;;;;;5026006;28;20029;-49
2022/10/23 07:55:17;;;;;;;6.30;4.30;;;13.40;99.90;;;;;;5009549;28;20053;-53
2022/10/23 07:57:43;;;;;;;5.45;4.45;;;13.60;99.90;;;;;;5025980;28;20115;-53
2022/10/23 08:00:10;;;;;;;5.43;4.35;;;13.70;99.90;;;;;;5028732;28;20469;-48
2022/10/23 08:02:36;;;;;;;7.40;4.88;;;13.80;99.90;;;;;;5013511;28;20040;-54
2022/10/23 08:05:01;;;;;;;6.63;4.28;;;13.90;99.90;;;;;;5028417;28;20025;-51
2022/10/23 08:07:27;;;;;;;6.10;4.50;;;14.00;99.90;;;;;;5012594;28;20638;-50
2022/10/23 08:09:52;;;;;;;4.38;3.85;;;14.10;99.90;;;;;;5028570;28;20137;-52
2022/10/23 08:12:17;;;;;;;4.78;4.28;;;14.30;99.90;;;;;;5010884;28;20025;-54
2022/10/23 08:14:43;;;;;;;6.28;4.25;;;14.30;99.90;;;;;;5028517;28;20507;-51
2022/10/23 08:17:08;;;;;;;6.40;4.78;;;14.40;99.90;;;;;;5009359;28;20105;-52
2022/10/23 08:19:35;;;;;;;6.55;4.65;;;14.60;99.90;;;;;;5028562;28;20109;-51
2022/10/23 08:22:00;;;;;;;5.88;4.43;;;14.70;99.90;;;;;;5008113;28;20654;-48
2022/10/23 08:24:26;;;;;;;6.15;4.43;;;15.00;99.90;;;;;;5025465;28;20080;-55
2022/10/23 08:26:51;;;;;;;7.00;3.85;;;15.30;99.90;;;;;;5009256;28;20444;-51
2022/10/23 08:29:17;;;;;;;7.30;4.45;;;15.60;99.90;;;;;;5025804;28;20509;-50
2022/10/23 08:31:42;;;;;;;9.23;3.88;;;15.90;99.90;;;;;;5008975;28;20258;-52
2022/10/23 08:34:08;;;;;;;5.65;3.90;;;16.10;99.90;;;;;;5007765;28;20026;-50
2022/10/23 08:36:35;;;;;;;4.40;3.60;;;16.30;99.90;;;;;;5023605;28;20125;-50
2022/10/23 08:39:00;;;;;;;8.18;4.18;;;16.60;99.90;;;;;;5005373;28;20037;-54
2022/10/23 08:41:34;;;;;;;6.05;3.55;;;16.80;99.90;;;;;;5025968;28;20030;-51
2022/10/23 08:44:14;;;;;;;3.65;3.13;;;17.10;99.90;;;;;;5006532;28;20080;-49
2022/10/23 08:46:44;;;;;;;6.47;3.35;;;17.30;99.90;;;;;;4987831;28;20407;-52
2022/10/23 08:49:21;;;;;;;7.07;3.17;;;17.50;99.90;;;;;;5008269;28;20427;-50
2022/10/23 08:51:50;;;;;;;6.88;2.85;;;17.70;99.90;;;;;;5027656;28;20136;-53
2022/10/23 08:54:32;;;;;;;5.63;3.17;;;17.70;99.90;;;;;;5005547;28;20091;-53
2022/10/23 08:57:10;;;;;;;5.03;3.33;;;17.90;99.90;;;;;;4988687;28;20030;-53
2022/10/23 08:59:41;;;;;;;5.63;2.85;;;17.90;99.90;;;;;;4988625;28;20506;-51
2022/10/23 09:02:06;;;;;;;3.35;2.65;;;18.00;99.90;;;;;;4988358;28;20104;-50
2022/10/23 09:04:32;;;;;;;5.90;3.13;;;18.20;99.90;;;;;;5027919;28;20536;-55
2022/10/23 09:07:16;;;;;;;2.75;2.50;;;18.30;99.90;;;;;;5008321;28;20176;-56
2022/10/23 09:10:00;;;;;;;5.25;2.58;;;18.40;99.90;;;;;;5008142;28;20057;-56
2022/10/23 09:12:27;;;;;;;5.70;3.30;;;18.50;99.90;;;;;;4992609;28;20520;-55
2022/10/23 09:15:07;;;;;;;6.47;3.88;;;18.50;99.90;;;;;;5027772;28;20033;-56
2022/10/23 09:17:37;;;;;;;6.20;4.65;;;18.50;99.90;;;;;;4993903;28;20113;-56
2022/10/23 09:20:33;;;;;;;7.22;4.18;;;18.50;99.90;;;;;;5027769;28;20068;-56
2022/10/23 09:23:17;;;;;;;9.10;4.25;;;18.50;99.90;;;;;;4995063;28;20136;-56
2022/10/23 09:25:43;;;;;;;7.53;3.92;;;18.40;99.90;;;;;;5008286;28;20044;-51
2022/10/23 09:28:19;;;;;;;9.05;4.30;;;18.40;99.90;;;;;;5017819;28;20066;-56
2022/10/23 09:30:45;;;;;;;9.25;5.13;;;18.30;99.90;;;;;;4987028;28;20661;-56
2022/10/23 09:33:17;;;;;;;7.50;4.63;;;18.20;99.90;;;;;;5025232;28;20052;-53
2022/10/23 09:36:00;;;;;;;6.15;3.88;;;18.20;99.90;;;;;;5009000;28;20462;-55
2022/10/23 09:38:29;;;;;;;4.40;3.40;;;18.30;99.90;;;;;;4997334;28;20038;-55
2022/10/23 09:40:55;;;;;;;7.88;4.82;;;18.30;99.90;;;;;;5026926;28;20025;-55
2022/10/23 09:43:22;;;;;;;6.88;5.30;;;18.20;99.90;;;;;;5015717;28;20104;-54
2022/10/23 09:46:00;;;;;;;6.03;4.43;;;18.20;99.90;;;;;;5007823;28;20022;-53
2022/10/23 09:48:26;;;;;;;9.93;4.60;;;18.10;99.90;;;;;;5025254;28;20397;-56
2022/10/23 09:51:00;;;;;;;4.97;3.80;;;18.10;99.90;;;;;;5008234;28;20022;-54
2022/10/23 09:53:34;;;;;;;6.20;4.22;;;18.10;99.90;;;;;;5006277;28;20033;-52
2022/10/23 09:56:03;;;;;;;7.50;4.38;;;18.10;99.90;;;;;;4987822;28;20439;-53
2022/10/23 09:58:33;;;;;;;6.88;4.05;;;18.10;99.90;;;;;;5025072;28;20034;-54
2022/10/23 10:00:59;;;;;;;8.63;4.13;;;18.00;99.70;;;;;;4988302;28;20034;-51
2022/10/23 10:03:25;;;;;;;7.63;3.85;;;17.90;99.90;;;;;;5024179;28;20088;-53
2022/10/23 10:06:02;;;;;;;10.90;3.55;;;17.90;99.90;;;;;;5010672;28;20572;-53
2022/10/23 10:08:45;;;;;;;10.00;4.38;;;17.90;99.90;;;;;;5009285;28;20041;-55
2022/10/23 10:11:20;;;;;;;6.03;3.20;;;17.90;99.90;;;;;;4991912;28;20057;-53
2022/10/23 10:14:10;;;;;;;7.73;3.73;;;17.90;99.90;;;;;;5001967;28;20026;-55
2022/10/23 10:16:50;;;;;;;4.55;2.50;;;17.90;99.90;;;;;;5029918;28;20632;-53
2022/10/23 10:19:47;;;;;;;4.38;3.05;;;17.80;99.90;;;;;;5005207;28;20087;-53
2022/10/23 10:22:49;;;;;;;9.13;3.28;;;17.70;99.90;;;;;;4991191;28;20061;-50
2022/10/23 10:25:34;;;;;;;5.03;2.78;;;17.70;99.90;;;;;;4991055;28;20038;-53
2022/10/23 10:28:20;;;;;;;3.88;2.20;;;17.70;99.90;;;;;;4999456;28;20020;-53
2022/10/23 10:31:18;;;;;;;4.55;2.13;;;17.70;99.90;;;;;;5030227;28;20049;-52
2022/10/23 10:33:58;;;;;;;7.40;1.75;;;17.80;99.90;;;;;;4988326;28;20100;-52
2022/10/23 10:36:40;;;;;;;2.25;1.80;;;17.80;99.90;;;;;;4994919;28;20072;-54
2022/10/23 10:39:40;;;;;;;2.05;1.77;;;17.80;99.90;;;;;;5028450;28;20041;-50
2022/10/23 10:42:48;;;;;;;4.55;2.17;;;17.80;99.90;;;;;;4990895;28;20057;-51
2022/10/23 10:45:44;;;;;;;3.60;1.90;;;17.70;98.10;;;;;;4990822;28;20517;-55
2022/10/23 10:48:36;;;;;;;2.47;1.77;;;17.80;99.90;;;;;;5000604;28;20180;-53
2022/10/23 10:51:06;;;;;;;2.58;1.73;;;17.80;99.70;;;;;;5030355;28;20716;-54
2022/10/23 10:53:50;;;;;;;5.63;2.03;;;17.80;98.10;;;;;;5007408;28;20508;-54
2022/10/23 10:56:19;;;;;;;3.90;2.00;;;17.80;99.20;;;;;;4990138;28;20166;-53
2022/10/23 10:58:52;;;;;;;3.60;2.15;;;17.80;97.30;;;;;;5027644;28;20030;-54
2022/10/23 11:01:41;;;;;;;3.97;1.80;;;17.80;96.00;;;;;;4990927;28;20429;-50
2022/10/23 11:04:18;;;;;;;3.22;1.70;;;17.80;98.30;;;;;;5015777;28;20037;-52
2022/10/23 11:06:47;;;;;;;4.05;1.50;;;17.90;99.00;;;;;;4991120;28;20030;-54
2022/10/23 11:09:21;;;;;;;2.90;1.88;;;17.90;97.70;;;;;;5028054;28;20071;-53
2022/10/23 11:11:47;;;;;;;1.83;1.20;;;18.00;98.80;;;;;;4990934;28;20045;-54
2022/10/23 11:14:22;;;;;;;2.15;1.35;;;18.00;99.50;;;;;;5012553;28;20026;-54
2022/10/23 11:17:02;;;;;;;2.83;1.80;;;18.00;99.90;;;;;;4989721;28;20196;-50
2022/10/23 11:19:33;;;;;;;4.10;1.35;;;18.10;99.70;;;;;;5004225;28;20402;-54
2022/10/23 11:22:30;;;;;;;1.85;1.42;;;18.20;99.90;;;;;;4990173;28;20491;-54
2022/10/23 11:25:25;;;;;;;3.45;1.33;;;18.20;97.00;;;;;;4985965;28;20116;-53
2022/10/23 11:28:33;;;;;;;5.72;1.67;;;18.20;99.50;;;;;;4993853;28;20044;-54
2022/10/23 11:31:16;;;;;;;4.70;1.63;;;18.20;95.70;;;;;;4990129;28;20246;-54
2022/10/23 11:34:01;;;;;;;2.67;1.58;;;18.20;98.00;;;;;;5001067;28;20386;-52
2022/10/23 11:36:52;;;;;;;3.55;1.70;;;18.20;94.60;;;;;;5007871;28;20034;-54
2022/10/23 11:39:21;;;;;;;3.33;1.33;;;18.20;95.70;;;;;;5022039;28;20337;-54
2022/10/23 11:42:08;;;;;;;3.85;1.38;;;18.20;95.50;;;;;;5009537;28;20034;-54
2022/10/23 11:44:33;;;;;;;2.45;1.55;;;18.30;98.10;;;;;;5002937;28;20077;-48
2022/10/23 11:47:05;;;;;;;2.28;1.33;;;18.40;98.10;;;;;;5044132;28;20106;-52
2022/10/23 11:49:31;;;;;;;1.67;1.40;;;18.40;96.00;;;;;;5007521;28;20170;-53
2022/10/23 11:52:04;;;;;;;2.28;1.35;;;18.50;98.00;;;;;;5028578;28;20120;-55
2022/10/23 11:54:30;;;;;;;2.92;1.20;;;18.50;98.40;;;;;;5007976;28;20026;-53
2022/10/23 11:57:07;;;;;;;1.88;1.42;;;18.50;98.20;;;;;;5028110;28;20246;-54
2022/10/23 11:59:48;;;;;;;4.15;1.73;;;18.60;97.50;;;;;;5003154;28;20033;-54
2022/10/23 12:02:36;;;;;;;3.78;1.52;;;18.60;96.70;;;;;;4989372;28;20030;-53
2022/10/23 12:05:07;;;;;;;4.07;1.50;;;18.60;97.10;;;;;;5006811;28;20064;-52
2022/10/23 12:07:36;;;;;;;9.35;5.65;;;18.60;96.40;;;;;;4989096;28;20113;-52
2022/10/23 12:10:06;;;;;;;5.45;2.15;;;18.60;95.90;;;;;;5006531;28;20037;-50
2022/10/23 12:12:41;;;;;;;14.60;7.82;;;18.60;94.60;;;;;;5027859;28;20029;-49
2022/10/23 12:15:17;;;;;;;17.55;11.00;;;18.60;96.50;;;;;;4989327;28;20030;-54
2022/10/23 12:17:44;;;;;;;12.98;8.80;;;18.70;97.40;;;;;;4987604;28;20042;-54
2022/10/23 12:20:09;;;;;;;9.82;5.68;;;18.70;98.00;;;;;;5028801;28;20236;-54
2022/10/23 12:23:00;;;;;;;9.25;7.15;;;18.70;96.00;;;;;;5008415;28;20210;-51
2022/10/23 12:25:48;;;;;;;12.52;8.73;;;18.70;95.60;;;;;;4985483;28;20069;-58
2022/10/23 12:28:33;;;;;;;7.53;5.32;;;18.80;96.00;;;;;;4990388;28;20494;-59
2022/10/23 12:31:22;;;;;;;6.85;3.35;;;18.80;95.60;;;;;;5004506;28;20053;-57
2022/10/23 12:34:23;;;;;;;4.90;3.55;;;18.90;94.30;;;;;;5004370;28;20104;-51
2022/10/23 12:37:25;;;;;;;3.95;3.17;;;18.90;94.10;;;;;;4999543;28;20498;-51
2022/10/23 12:39:55;;;;;;;3.97;2.30;;;19.00;92.90;;;;;;5007428;28;20037;-52
2022/10/23 12:42:26;;;;;;;4.65;2.05;;;19.00;95.20;;;;;;5027231;28;20088;-52
2022/10/23 12:45:04;;;;;;;4.63;1.85;;;19.10;95.40;;;;;;5006732;28;20065;-50
2022/10/23 12:47:30;;;;;;;2.50;1.38;;;19.00;93.00;;;;;;5027604;28;20677;-52
2022/10/23 12:49:55;;;;;;;1.77;1.30;;;19.00;93.40;;;;;;5007214;28;20040;-53
2022/10/23 12:52:23;;;;;;;2.92;1.65;;;19.00;93.50;;;;;;5027299;28;20037;-50
2022/10/23 12:54:49;;;;;;;5.80;1.75;;;19.00;94.20;;;;;;5006907;28;20018;-51
2022/10/23 12:57:21;;;;;;;12.18;6.25;;;19.00;94.80;;;;;;5008108;28;20030;-52
2022/10/23 12:59:47;;;;;;;27.00;18.02;;;19.00;95.20;;;;;;5002872;28;20029;-54
2022/10/23 13:02:29;;;;;;;12.38;8.38;;;19.00;94.00;;;;;;5027326;28;20079;-56
2022/10/23 13:04:57;;;;;;;6.45;4.50;;;19.00;94.10;;;;;;5003823;28;20057;-54
2022/10/23 13:07:26;;;;;;;6.00;3.00;;;18.90;94.10;;;;;;5027673;28;20109;-50